sensor_id;sensor_type;location;lat;lon;timestamp;pressure;altitude;pressure_sealevel;temperature;humidity
2000;BME280;1001;48.87406500;9.59633600;2023-03-22T00:01:55;94925.75;;;9.98;84.22
2000;BME280;1001;48.87406500;9.59633600;2023-03-22T00:04:23;94939.94;;;10.02;84.09
2000;BME280;1001;48.87406500;9.59633600;2023-03-22T00:06:52;94937.22;;;9.97;84.37
2000;BME280;1001;48.87406500;9.59633600;2023-03-22T00:09:18;94940.94;;;10.01;84.31
2000;BME280;1001;48.87406500;9.59633600;2023-03-22T00:11:45;94938.00;;;9.98;85.25
2000;BME280;1001;48.87406500;9.59633600;2023-03-22T00:14:17;94942.88;;;9.94;84.96
2000;BME280;1001;48.87406500;9.59633600;2023-03-22T00:16:44;94935.97;;;9.88;85.32
2000;BME280;1001;48.87406500;9.59633600;2023-03-22T00:19:13;94927.09;;;9.89;85.48
2000;BME280;1001;48.87406500;9.59633600;2023-03-22T00:21:40;94930.41;;;9.85;85.85
2000;BME280;1001;48.87406500;9.59633600;2023-03-22T00:24:08;94931.44;;;9.84;85.92
2000;BME280;1001;48.87406500;9.59633600;2023-03-22T00:26:34;94917.59;;;9.83;86.07
2000;BME280;1001;48.87406500;9.59633600;2023-03-22T00:29:01;94920.06;;;9.78;85.70
2000;BME280;1001;48.87406500;9.59633600;2023-03-22T00:31:28;94918.84;;;9.69;87.11
2000;BME280;1001;48.87406500;9.59633600;2023-03-22T00:33:54;94907.16;;;9.60;86.86
2000;BME280;1001;48.87406500;9.59633600;2023-03-22T00:36:21;94902.94;;;9.59;87.48
2000;BME280;1001;48.87406500;9.59633600;2023-03-22T00:38:48;94901.81;;;9.55;87.85
2000;BME280;1001;48.87406500;9.59633600;2023-03-22T00:41:17;94900.56;;;9.57;87.30
2000;BME280;1001;48.87406500;9.59633600;2023-03-22T00:43:45;94901.25;;;9.53;87.83
2000;BME280;1001;48.87406500;9.59633600;2023-03-22T00:46:13;94896.91;;;9.47;88.21
2000;BME280;1001;48.87406500;9.59633600;2023-03-22T00:48:40;94894.66;;;9.50;87.84
2000;BME280;1001;48.87406500;9.59633600;2023-03-22T00:51:07;94887.97;;;9.54;87.84
2000;BME280;1001;48.87406500;9.59633600;2023-03-22T00:53:35;94880.69;;;9.45;88.16
2000;BME280;1001;48.87406500;9.59633600;2023-03-22T00:56:02;94883.88;;;9.47;88.41
2000;BME280;1001;48.87406500;9.59633600;2023-03-22T00:58:30;94888.53;;;9.45;88.61
2000;BME280;1001;48.87406500;9.59633600;2023-03-22T01:00:57;94887.72;;;9.44;89.09
2000;BME280;1001;48.87406500;9.59633600;2023-03-22T01:03:23;94884.66;;;9.47;88.68
2000;BME280;1001;48.87406500;9.59633600;2023-03-22T01:05:51;94890.69;;;9.48;88.78
2000;BME280;1001;48.87406500;9.59633600;2023-03-22T01:08:19;94883.41;;;9.38;88.66
2000;BME280;1001;48.87406500;9.59633600;2023-03-22T01:10:47;94886.25;;;9.37;88.55
2000;BME280;1001;48.87406500;9.59633600;2023-03-22T01:13:14;94879.31;;;9.31;88.92
2000;BME280;1001;48.87406500;9.59633600;2023-03-22T01:15:42;94886.16;;;9.32;89.30
2000;BME280;1001;48.87406500;9.59633600;2023-03-22T01:18:09;94872.84;;;9.10;89.75
2000;BME280;1001;48.87406500;9.59633600;2023-03-22T01:20:36;94875.66;;;9.09;90.19
2000;BME280;1001;48.87406500;9.59633600;2023-03-22T01:23:02;94864.88;;;8.94;91.05
2000;BME280;1001;48.87406500;9.59633600;2023-03-22T01:25:29;94869.66;;;8.97;91.21
2000;BME280;1001;48.87406500;9.59633600;2023-03-22T01:27:56;94859.22;;;8.97;91.18
2000;BME280;1001;48.87406500;9.59633600;2023-03-22T01:30:22;94855.31;;;8.87;91.30
2000;BME280;1001;48.87406500;9.59633600;2023-03-22T01:32:50;94864.84;;;8.70;92.20
2000;BME280;1001;48.87406500;9.59633600;2023-03-22T01:35:17;94852.09;;;8.62;93.09
2000;BME280;1001;48.87406500;9.59633600;2023-03-22T01:37:44;94857.75;;;8.59;93.61
2000;BME280;1001;48.87406500;9.59633600;2023-03-22T01:40:11;94856.81;;;8.83;93.37
2000;BME280;1001;48.87406500;9.59633600;2023-03-22T01:42:38;94854.00;;;8.97;92.07
2000;BME280;1001;48.87406500;9.59633600;2023-03-22T01:45:36;94849.94;;;9.01;90.91
2000;BME280;1001;48.87406500;9.59633600;2023-03-22T01:48:08;94852.97;;;8.86;91.91
2000;BME280;1001;48.87406500;9.59633600;2023-03-22T01:50:38;94849.75;;;8.72;92.75
2000;BME280;1001;48.87406500;9.59633600;2023-03-22T01:53:07;94846.13;;;8.73;93.35
2000;BME280;1001;48.87406500;9.59633600;2023-03-22T01:55:34;94842.28;;;8.87;92.09
2000;BME280;1001;48.87406500;9.59633600;2023-03-22T01:58:01;94837.44;;;8.91;92.45
2000;BME280;1001;48.87406500;9.59633600;2023-03-22T02:00:28;94836.75;;;8.96;92.17
2000;BME280;1001;48.87406500;9.59633600;2023-03-22T02:02:56;94832.47;;;9.13;91.08
2000;BME280;1001;48.87406500;9.59633600;2023-03-22T02:05:24;94835.53;;;9.21;90.59
2000;BME280;1001;48.87406500;9.59633600;2023-03-22T02:07:52;94838.72;;;9.23;90.52
2000;BME280;1001;48.87406500;9.59633600;2023-03-22T02:10:21;94826.91;;;9.09;90.79
2000;BME280;1001;48.87406500;9.59633600;2023-03-22T02:12:59;94825.47;;;9.13;90.58
2000;BME280;1001;48.87406500;9.59633600;2023-03-22T02:15:30;94827.03;;;9.14;90.74
2000;BME280;1001;48.87406500;9.59633600;2023-03-22T02:18:14;94829.75;;;9.08;90.76
2000;BME280;1001;48.87406500;9.59633600;2023-03-22T02:21:27;94824.84;;;9.11;90.92
2000;BME280;1001;48.87406500;9.59633600;2023-03-22T02:24:32;94822.59;;;9.15;90.72
2000;BME280;1001;48.87406500;9.59633600;2023-03-22T02:27:38;94818.75;;;9.17;90.87
2000;BME280;1001;48.87406500;9.59633600;2023-03-22T02:30:24;94814.53;;;9.05;91.26
2000;BME280;1001;48.87406500;9.59633600;2023-03-22T02:33:06;94816.03;;;9.01;91.75
2000;BME280;1001;48.87406500;9.59633600;2023-03-22T02:35:51;94821.00;;;8.90;92.45
2000;BME280;1001;48.87406500;9.59633600;2023-03-22T02:41:38;94814.41;;;8.88;92.78
2000;BME280;1001;48.87406500;9.59633600;2023-03-22T02:44:12;94806.94;;;8.92;92.53
2000;BME280;1001;48.87406500;9.59633600;2023-03-22T02:46:44;94807.84;;;8.97;92.17
2000;BME280;1001;48.87406500;9.59633600;2023-03-22T02:49:17;94806.41;;;9.01;91.65
2000;BME280;1001;48.87406500;9.59633600;2023-03-22T02:51:48;94810.38;;;9.04;91.69
2000;BME280;1001;48.87406500;9.59633600;2023-03-22T02:54:20;94809.78;;;9.02;91.61
2000;BME280;1001;48.87406500;9.59633600;2023-03-22T02:56:52;94804.69;;;9.07;90.63
2000;BME280;1001;48.87406500;9.59633600;2023-03-22T02:59:22;94800.03;;;9.09;90.60
2000;BME280;1001;48.87406500;9.59633600;2023-03-22T03:01:54;94809.31;;;9.05;91.11
2000;BME280;1001;48.87406500;9.59633600;2023-03-22T03:04:27;94798.34;;;9.03;90.93
2000;BME280;1001;48.87406500;9.59633600;2023-03-22T03:06:58;94803.00;;;9.01;91.36
2000;BME280;1001;48.87406500;9.59633600;2023-03-22T03:09:28;94806.97;;;9.03;91.40
2000;BME280;1001;48.87406500;9.59633600;2023-03-22T03:11:55;94804.56;;;9.02;91.34
2000;BME280;1001;48.87406500;9.59633600;2023-03-22T03:14:22;94808.41;;;8.99;92.16
2000;BME280;1001;48.87406500;9.59633600;2023-03-22T03:17:00;94806.84;;;8.98;91.92
2000;BME280;1001;48.87406500;9.59633600;2023-03-22T03:19:34;94798.44;;;8.96;91.50
2000;BME280;1001;48.87406500;9.59633600;2023-03-22T03:22:09;94798.44;;;8.84;92.22
2000;BME280;1001;48.87406500;9.59633600;2023-03-22T03:24:47;94804.09;;;8.81;92.44
2000;BME280;1001;48.87406500;9.59633600;2023-03-22T03:27:17;94805.22;;;8.85;92.58
2000;BME280;1001;48.87406500;9.59633600;2023-03-22T03:29:49;94802.63;;;8.85;92.45
2000;BME280;1001;48.87406500;9.59633600;2023-03-22T03:32:21;94810.22;;;8.87;92.28
2000;BME280;1001;48.87406500;9.59633600;2023-03-22T03:34:54;94794.66;;;8.80;92.70
2000;BME280;1001;48.87406500;9.59633600;2023-03-22T03:37:25;94807.94;;;8.79;92.82
2000;BME280;1001;48.87406500;9.59633600;2023-03-22T03:39:58;94808.63;;;8.74;93.52
2000;BME280;1001;48.87406500;9.59633600;2023-03-22T03:42:27;94802.34;;;8.64;93.59
2000;BME280;1001;48.87406500;9.59633600;2023-03-22T03:44:56;94805.88;;;8.69;93.72
2000;BME280;1001;48.87406500;9.59633600;2023-03-22T03:47:23;94806.13;;;8.68;93.38
2000;BME280;1001;48.87406500;9.59633600;2023-03-22T03:49:50;94812.03;;;8.75;93.04
2000;BME280;1001;48.87406500;9.59633600;2023-03-22T03:52:17;94813.28;;;8.72;93.52
2000;BME280;1001;48.87406500;9.59633600;2023-03-22T03:54:44;94811.47;;;8.73;93.48
2000;BME280;1001;48.87406500;9.59633600;2023-03-22T03:57:12;94811.47;;;8.73;93.31
2000;BME280;1001;48.87406500;9.59633600;2023-03-22T03:59:41;94816.31;;;8.69;93.76
2000;BME280;1001;48.87406500;9.59633600;2023-03-22T04:02:07;94809.16;;;8.65;94.19
2000;BME280;1001;48.87406500;9.59633600;2023-03-22T04:04:34;94814.94;;;8.67;93.87
2000;BME280;1001;48.87406500;9.59633600;2023-03-22T04:07:02;94814.69;;;8.57;94.20
2000;BME280;1001;48.87406500;9.59633600;2023-03-22T04:09:31;94812.97;;;8.51;94.70
2000;BME280;1001;48.87406500;9.59633600;2023-03-22T04:11:59;94813.75;;;8.40;95.16
2000;BME280;1001;48.87406500;9.59633600;2023-03-22T04:14:27;94813.78;;;8.51;95.47
2000;BME280;1001;48.87406500;9.59633600;2023-03-22T04:16:54;94809.59;;;8.62;94.75
2000;BME280;1001;48.87406500;9.59633600;2023-03-22T04:19:21;94809.16;;;8.65;94.33
2000;BME280;1001;48.87406500;9.59633600;2023-03-22T04:21:48;94811.53;;;8.66;93.63
2000;BME280;1001;48.87406500;9.59633600;2023-03-22T04:24:18;94811.53;;;8.66;93.97
2000;BME280;1001;48.87406500;9.59633600;2023-03-22T04:26:44;94819.22;;;8.61;93.32
2000;BME280;1001;48.87406500;9.59633600;2023-03-22T04:29:11;94811.06;;;8.46;94.27
2000;BME280;1001;48.87406500;9.59633600;2023-03-22T04:31:39;94810.25;;;8.46;94.51
2000;BME280;1001;48.87406500;9.59633600;2023-03-22T04:34:06;94808.34;;;8.53;94.30
2000;BME280;1001;48.87406500;9.59633600;2023-03-22T04:36:33;94805.41;;;8.49;94.41
2000;BME280;1001;48.87406500;9.59633600;2023-03-22T04:39:01;94813.78;;;8.51;94.46
2000;BME280;1001;48.87406500;9.59633600;2023-03-22T04:41:28;94814.59;;;8.52;93.74
2000;BME280;1001;48.87406500;9.59633600;2023-03-22T04:43:55;94804.38;;;8.50;93.55
2000;BME280;1001;48.87406500;9.59633600;2023-03-22T04:46:22;94804.38;;;8.62;93.37
2000;BME280;1001;48.87406500;9.59633600;2023-03-22T04:48:50;94800.34;;;8.66;92.74
2000;BME280;1001;48.87406500;9.59633600;2023-03-22T04:51:16;94807.94;;;8.67;92.44
2000;BME280;1001;48.87406500;9.59633600;2023-03-22T04:53:43;94808.81;;;8.61;92.48
2000;BME280;1001;48.87406500;9.59633600;2023-03-22T04:56:11;94810.84;;;8.59;92.72
2000;BME280;1001;48.87406500;9.59633600;2023-03-22T04:58:41;94800.09;;;8.56;92.65
2000;BME280;1001;48.87406500;9.59633600;2023-03-22T05:01:08;94804.06;;;8.58;93.37
2000;BME280;1001;48.87406500;9.59633600;2023-03-22T05:03:35;94795.06;;;8.54;93.15
2000;BME280;1001;48.87406500;9.59633600;2023-03-22T05:06:05;94797.47;;;8.56;92.90
2000;BME280;1001;48.87406500;9.59633600;2023-03-22T05:08:33;94799.84;;;8.57;92.56
2000;BME280;1001;48.87406500;9.59633600;2023-03-22T05:11:04;94800.53;;;8.53;92.59
2000;BME280;1001;48.87406500;9.59633600;2023-03-22T05:13:31;94794.38;;;8.47;93.11
2000;BME280;1001;48.87406500;9.59633600;2023-03-22T05:15:58;94790.09;;;8.53;93.24
2000;BME280;1001;48.87406500;9.59633600;2023-03-22T05:18:25;94787.72;;;8.51;93.12
2000;BME280;1001;48.87406500;9.59633600;2023-03-22T05:20:53;94793.38;;;8.48;93.21
2000;BME280;1001;48.87406500;9.59633600;2023-03-22T05:23:22;94783.19;;;8.47;93.27
2000;BME280;1001;48.87406500;9.59633600;2023-03-22T05:25:50;94777.03;;;8.41;93.65
2000;BME280;1001;48.87406500;9.59633600;2023-03-22T05:28:18;94771.28;;;8.39;93.99
2000;BME280;1001;48.87406500;9.59633600;2023-03-22T05:30:46;94784.06;;;8.41;94.18
2000;BME280;1001;48.87406500;9.59633600;2023-03-22T05:33:12;94783.31;;;8.52;93.33
2000;BME280;1001;48.87406500;9.59633600;2023-03-22T05:35:41;94779.25;;;8.56;93.49
2000;BME280;1001;48.87406500;9.59633600;2023-03-22T05:38:09;94773.22;;;8.55;93.27
2000;BME280;1001;48.87406500;9.59633600;2023-03-22T05:40:37;94772.53;;;8.48;93.03
2000;BME280;1001;48.87406500;9.59633600;2023-03-22T05:43:04;94780.78;;;8.45;93.59
2000;BME280;1001;48.87406500;9.59633600;2023-03-22T05:45:30;94780.88;;;8.39;93.87
2000;BME280;1001;48.87406500;9.59633600;2023-03-22T05:47:57;94776.22;;;8.29;94.08
2000;BME280;1001;48.87406500;9.59633600;2023-03-22T05:50:24;94779.47;;;8.24;94.82
2000;BME280;1001;48.87406500;9.59633600;2023-03-22T05:52:51;94771.63;;;8.13;95.65
2000;BME280;1001;48.87406500;9.59633600;2023-03-22T05:55:18;94758.22;;;8.09;96.13
2000;BME280;1001;48.87406500;9.59633600;2023-03-22T05:57:46;94764.81;;;8.12;95.84
2000;BME280;1001;48.87406500;9.59633600;2023-03-22T06:00:17;94762.13;;;8.18;95.69
2000;BME280;1001;48.87406500;9.59633600;2023-03-22T06:02:45;94762.47;;;8.22;95.10
2000;BME280;1001;48.87406500;9.59633600;2023-03-22T06:05:15;94761.63;;;8.28;95.01
2000;BME280;1001;48.87406500;9.59633600;2023-03-22T06:07:43;94757.97;;;8.29;94.96
2000;BME280;1001;48.87406500;9.59633600;2023-03-22T06:10:11;94764.63;;;8.25;95.70
2000;BME280;1001;48.87406500;9.59633600;2023-03-22T06:12:38;94763.47;;;8.21;96.07
2000;BME280;1001;48.87406500;9.59633600;2023-03-22T06:15:08;94761.63;;;8.28;96.05
2000;BME280;1001;48.87406500;9.59633600;2023-03-22T06:17:35;94760.47;;;8.36;95.31
2000;BME280;1001;48.87406500;9.59633600;2023-03-22T06:20:02;94761.75;;;8.45;94.60
2000;BME280;1001;48.87406500;9.59633600;2023-03-22T06:22:33;94760.75;;;8.57;93.84
2000;BME280;1001;48.87406500;9.59633600;2023-03-22T06:25:00;94770.63;;;8.67;92.90
2000;BME280;1001;48.87406500;9.59633600;2023-03-22T06:27:27;94766.56;;;8.71;92.56
2000;BME280;1001;48.87406500;9.59633600;2023-03-22T06:29:53;94774.84;;;8.79;91.37
2000;BME280;1001;48.87406500;9.59633600;2023-03-22T06:32:21;94777.69;;;8.89;90.80
2000;BME280;1001;48.87406500;9.59633600;2023-03-22T06:34:48;94786.66;;;8.94;90.72
2000;BME280;1001;48.87406500;9.59633600;2023-03-22T06:37:15;94787.09;;;9.02;90.71
2000;BME280;1001;48.87406500;9.59633600;2023-03-22T06:39:42;94790.19;;;9.11;89.67
2000;BME280;1001;48.87406500;9.59633600;2023-03-22T06:42:08;94789.63;;;9.20;89.75
2000;BME280;1001;48.87406500;9.59633600;2023-03-22T06:44:35;94793.22;;;9.31;89.48
2000;BME280;1001;48.87406500;9.59633600;2023-03-22T06:47:02;94794.47;;;9.40;88.42
2000;BME280;1001;48.87406500;9.59633600;2023-03-22T06:49:30;94804.78;;;9.58;88.47
2000;BME280;1001;48.87406500;9.59633600;2023-03-22T06:51:57;94805.88;;;9.74;87.56
2000;BME280;1001;48.87406500;9.59633600;2023-03-22T06:54:23;94809.25;;;9.86;86.97
2000;BME280;1001;48.87406500;9.59633600;2023-03-22T06:56:50;94811.69;;;10.04;86.19
2000;BME280;1001;48.87406500;9.59633600;2023-03-22T06:59:17;94814.84;;;10.17;85.85
2000;BME280;1001;48.87406500;9.59633600;2023-03-22T07:01:43;94809.38;;;10.31;84.80
2000;BME280;1001;48.87406500;9.59633600;2023-03-22T07:04:10;94808.38;;;10.48;83.33
2000;BME280;1001;48.87406500;9.59633600;2023-03-22T07:06:38;94813.06;;;10.63;83.04
2000;BME280;1001;48.87406500;9.59633600;2023-03-22T07:09:04;94807.56;;;10.76;82.05
2000;BME280;1001;48.87406500;9.59633600;2023-03-22T07:11:31;94816.84;;;11.00;82.19
2000;BME280;1001;48.87406500;9.59633600;2023-03-22T07:13:58;94812.09;;;11.14;81.30
2000;BME280;1001;48.87406500;9.59633600;2023-03-22T07:16:24;94814.13;;;11.28;81.44
2000;BME280;1001;48.87406500;9.59633600;2023-03-22T07:18:51;94810.78;;;11.49;80.15
2000;BME280;1001;48.87406500;9.59633600;2023-03-22T07:21:18;94818.44;;;11.56;79.82
2000;BME280;1001;48.87406500;9.59633600;2023-03-22T07:23:45;94807.41;;;11.71;79.08
2000;BME280;1001;48.87406500;9.59633600;2023-03-22T07:26:12;94808.09;;;11.83;77.96
2000;BME280;1001;48.87406500;9.59633600;2023-03-22T07:28:39;94817.19;;;11.97;76.97
2000;BME280;1001;48.87406500;9.59633600;2023-03-22T07:31:09;94817.13;;;11.92;75.05
2000;BME280;1001;48.87406500;9.59633600;2023-03-22T07:33:37;94812.28;;;12.05;76.35
2000;BME280;1001;48.87406500;9.59633600;2023-03-22T07:36:06;94817.06;;;12.08;74.57
2000;BME280;1001;48.87406500;9.59633600;2023-03-22T07:38:33;94813.25;;;12.21;74.75
2000;BME280;1001;48.87406500;9.59633600;2023-03-22T07:41:02;94808.19;;;12.36;75.55
2000;BME280;1001;48.87406500;9.59633600;2023-03-22T07:43:29;94819.38;;;12.53;74.33
2000;BME280;1001;48.87406500;9.59633600;2023-03-22T07:45:56;94817.59;;;12.59;73.96
2000;BME280;1001;48.87406500;9.59633600;2023-03-22T07:48:23;94817.88;;;12.62;73.50
2000;BME280;1001;48.87406500;9.59633600;2023-03-22T07:50:54;94824.06;;;12.78;71.28
2000;BME280;1001;48.87406500;9.59633600;2023-03-22T07:53:21;94827.22;;;12.75;72.01
2000;BME280;1001;48.87406500;9.59633600;2023-03-22T07:55:48;94820.56;;;12.67;70.91
2000;BME280;1001;48.87406500;9.59633600;2023-03-22T07:58:16;94826.72;;;12.83;70.53
2000;BME280;1001;48.87406500;9.59633600;2023-03-22T08:00:42;94822.16;;;13.00;70.71
2000;BME280;1001;48.87406500;9.59633600;2023-03-22T08:03:10;94824.81;;;13.32;70.72
2000;BME280;1001;48.87406500;9.59633600;2023-03-22T08:05:39;94832.34;;;13.23;68.08
2000;BME280;1001;48.87406500;9.59633600;2023-03-22T08:08:06;94832.97;;;13.35;67.22
2000;BME280;1001;48.87406500;9.59633600;2023-03-22T08:10:33;94827.50;;;13.42;65.81
2000;BME280;1001;48.87406500;9.59633600;2023-03-22T08:13:00;94835.75;;;13.60;66.59
2000;BME280;1001;48.87406500;9.59633600;2023-03-22T08:15:28;94835.13;;;13.43;63.16
2000;BME280;1001;48.87406500;9.59633600;2023-03-22T08:17:56;94838.84;;;13.47;64.75
2000;BME280;1001;48.87406500;9.59633600;2023-03-22T08:20:23;94844.44;;;13.61;63.66
2000;BME280;1001;48.87406500;9.59633600;2023-03-22T08:22:51;94846.78;;;13.57;63.92
2000;BME280;1001;48.87406500;9.59633600;2023-03-22T08:25:18;94843.91;;;13.59;65.72
2000;BME280;1001;48.87406500;9.59633600;2023-03-22T08:27:45;94835.03;;;13.65;63.05
2000;BME280;1001;48.87406500;9.59633600;2023-03-22T08:30:13;94839.25;;;13.71;64.88
2000;BME280;1001;48.87406500;9.59633600;2023-03-22T08:32:41;94843.72;;;13.71;64.88
2000;BME280;1001;48.87406500;9.59633600;2023-03-22T08:35:09;94844.78;;;13.70;63.76
2000;BME280;1001;48.87406500;9.59633600;2023-03-22T08:37:36;94833.97;;;13.66;64.20
2000;BME280;1001;48.87406500;9.59633600;2023-03-22T08:40:05;94832.09;;;13.61;63.00
2000;BME280;1001;48.87406500;9.59633600;2023-03-22T08:42:33;94839.28;;;13.76;64.03
2000;BME280;1001;48.87406500;9.59633600;2023-03-22T08:45:00;94833.31;;;13.49;63.34
2000;BME280;1001;48.87406500;9.59633600;2023-03-22T08:47:27;94843.97;;;13.69;66.19
2000;BME280;1001;48.87406500;9.59633600;2023-03-22T08:49:55;94843.63;;;13.60;64.25
2000;BME280;1001;48.87406500;9.59633600;2023-03-22T08:52:21;94835.06;;;13.75;64.79
2000;BME280;1001;48.87406500;9.59633600;2023-03-22T08:54:48;94835.59;;;13.77;63.95
2000;BME280;1001;48.87406500;9.59633600;2023-03-22T08:57:16;94841.47;;;13.94;65.47
2000;BME280;1001;48.87406500;9.59633600;2023-03-22T08:59:43;94830.44;;;13.97;62.62
2000;BME280;1001;48.87406500;9.59633600;2023-03-22T09:02:10;94829.13;;;13.95;63.47
2000;BME280;1001;48.87406500;9.59633600;2023-03-22T09:04:37;94829.78;;;14.22;65.30
2000;BME280;1001;48.87406500;9.59633600;2023-03-22T09:07:05;94827.19;;;14.32;62.59
2000;BME280;1001;48.87406500;9.59633600;2023-03-22T09:09:31;94828.25;;;14.31;62.92
2000;BME280;1001;48.87406500;9.59633600;2023-03-22T09:11:58;94830.44;;;14.59;60.49
2000;BME280;1001;48.87406500;9.59633600;2023-03-22T09:14:24;94838.56;;;14.43;61.23
2000;BME280;1001;48.87406500;9.59633600;2023-03-22T09:16:51;94826.72;;;14.55;60.82
2000;BME280;1001;48.87406500;9.59633600;2023-03-22T09:19:17;94826.81;;;14.80;61.78
2000;BME280;1001;48.87406500;9.59633600;2023-03-22T09:21:44;94825.50;;;14.88;60.69
2000;BME280;1001;48.87406500;9.59633600;2023-03-22T09:24:12;94819.94;;;14.59;59.69
2000;BME280;1001;48.87406500;9.59633600;2023-03-22T09:26:39;94824.44;;;14.74;60.22
2000;BME280;1001;48.87406500;9.59633600;2023-03-22T09:29:05;94814.97;;;14.88;60.99
2000;BME280;1001;48.87406500;9.59633600;2023-03-22T09:31:32;94813.91;;;14.99;57.84
2000;BME280;1001;48.87406500;9.59633600;2023-03-22T09:33:58;94811.53;;;14.87;61.89
2000;BME280;1001;48.87406500;9.59633600;2023-03-22T09:36:25;94812.56;;;14.81;58.02
2000;BME280;1001;48.87406500;9.59633600;2023-03-22T09:38:52;94806.56;;;15.21;58.42
2000;BME280;1001;48.87406500;9.59633600;2023-03-22T09:41:22;94808.38;;;15.41;58.91
2000;BME280;1001;48.87406500;9.59633600;2023-03-22T09:43:53;94808.91;;;15.68;60.21
2000;BME280;1001;48.87406500;9.59633600;2023-03-22T09:46:26;94799.97;;;15.19;57.68
2000;BME280;1001;48.87406500;9.59633600;2023-03-22T09:48:55;94800.50;;;15.46;59.62
2000;BME280;1001;48.87406500;9.59633600;2023-03-22T09:51:29;94802.81;;;15.73;56.49
2000;BME280;1001;48.87406500;9.59633600;2023-03-22T09:53:58;94792.88;;;15.44;56.52
2000;BME280;1001;48.87406500;9.59633600;2023-03-22T09:56:28;94791.19;;;15.74;58.49
2000;BME280;1001;48.87406500;9.59633600;2023-03-22T09:59:04;94799.94;;;15.44;57.30
2000;BME280;1001;48.87406500;9.59633600;2023-03-22T10:01:39;94803.91;;;15.56;61.00
2000;BME280;1001;48.87406500;9.59633600;2023-03-22T10:04:35;94790.47;;;15.53;57.10
2000;BME280;1001;48.87406500;9.59633600;2023-03-22T10:07:09;94789.69;;;15.42;58.29
2000;BME280;1001;48.87406500;9.59633600;2023-03-22T10:09:44;94784.69;;;15.31;57.07
2000;BME280;1001;48.87406500;9.59633600;2023-03-22T10:12:21;94784.38;;;15.57;60.31
2000;BME280;1001;48.87406500;9.59633600;2023-03-22T10:14:58;94772.28;;;15.61;56.00
2000;BME280;1001;48.87406500;9.59633600;2023-03-22T10:17:28;94767.44;;;15.89;55.56
2000;BME280;1001;48.87406500;9.59633600;2023-03-22T10:19:58;94780.81;;;16.02;59.13
2000;BME280;1001;48.87406500;9.59633600;2023-03-22T10:22:28;94775.22;;;16.14;55.91
2000;BME280;1001;48.87406500;9.59633600;2023-03-22T10:24:57;94779.81;;;15.88;56.59
2000;BME280;1001;48.87406500;9.59633600;2023-03-22T10:27:28;94761.66;;;15.82;53.84
2000;BME280;1001;48.87406500;9.59633600;2023-03-22T10:29:58;94765.78;;;16.08;55.85
2000;BME280;1001;48.87406500;9.59633600;2023-03-22T10:32:30;94754.56;;;15.77;56.36
2000;BME280;1001;48.87406500;9.59633600;2023-03-22T10:35:00;94752.41;;;15.89;57.59
2000;BME280;1001;48.87406500;9.59633600;2023-03-22T10:37:30;94752.06;;;16.11;55.81
2000;BME280;1001;48.87406500;9.59633600;2023-03-22T10:40:01;94752.44;;;16.33;57.52
2000;BME280;1001;48.87406500;9.59633600;2023-03-22T10:42:35;94745.31;;;16.33;57.65
2000;BME280;1001;48.87406500;9.59633600;2023-03-22T10:45:06;94752.19;;;16.40;55.76
2000;BME280;1001;48.87406500;9.59633600;2023-03-22T10:47:36;94753.56;;;16.22;57.80
2000;BME280;1001;48.87406500;9.59633600;2023-03-22T10:50:10;94748.44;;;15.97;57.35
2000;BME280;1001;48.87406500;9.59633600;2023-03-22T10:52:41;94742.41;;;15.76;58.06
2000;BME280;1001;48.87406500;9.59633600;2023-03-22T10:55:13;94750.69;;;15.54;56.34
2000;BME280;1001;48.87406500;9.59633600;2023-03-22T10:57:56;94753.06;;;15.46;57.03
2000;BME280;1001;48.87406500;9.59633600;2023-03-22T11:00:23;94749.78;;;15.84;56.80
2000;BME280;1001;48.87406500;9.59633600;2023-03-22T11:02:51;94749.94;;;16.08;56.70
2000;BME280;1001;48.87406500;9.59633600;2023-03-22T11:05:22;94750.31;;;16.35;55.79
2000;BME280;1001;48.87406500;9.59633600;2023-03-22T11:07:49;94741.97;;;16.23;55.75
2000;BME280;1001;48.87406500;9.59633600;2023-03-22T11:10:24;94743.78;;;16.27;55.00
2000;BME280;1001;48.87406500;9.59633600;2023-03-22T11:12:56;94736.81;;;15.98;53.32
2000;BME280;1001;48.87406500;9.59633600;2023-03-22T11:15:38;94736.41;;;15.65;55.91
2000;BME280;1001;48.87406500;9.59633600;2023-03-22T11:18:07;94739.22;;;15.89;55.71
2000;BME280;1001;48.87406500;9.59633600;2023-03-22T11:20:38;94743.56;;;16.14;56.31
2000;BME280;1001;48.87406500;9.59633600;2023-03-22T11:23:06;94747.25;;;16.23;54.73
2000;BME280;1001;48.87406500;9.59633600;2023-03-22T11:25:43;94742.16;;;16.37;56.02
2000;BME280;1001;48.87406500;9.59633600;2023-03-22T11:28:18;94719.56;;;16.20;55.46
2000;BME280;1001;48.87406500;9.59633600;2023-03-22T11:31:01;94721.97;;;16.12;55.00
2000;BME280;1001;48.87406500;9.59633600;2023-03-22T11:33:29;94729.63;;;16.13;55.64
2000;BME280;1001;48.87406500;9.59633600;2023-03-22T11:35:57;94726.56;;;16.35;54.54
2000;BME280;1001;48.87406500;9.59633600;2023-03-22T11:38:27;94723.50;;;16.23;53.52
2000;BME280;1001;48.87406500;9.59633600;2023-03-22T11:41:00;94732.88;;;15.90;54.93
2000;BME280;1001;48.87406500;9.59633600;2023-03-22T11:43:32;94729.47;;;15.90;54.42
2000;BME280;1001;48.87406500;9.59633600;2023-03-22T11:46:00;94721.44;;;16.15;54.16
2000;BME280;1001;48.87406500;9.59633600;2023-03-22T11:48:29;94721.78;;;16.42;51.83
2000;BME280;1001;48.87406500;9.59633600;2023-03-22T11:51:03;94723.75;;;16.70;54.20
2000;BME280;1001;48.87406500;9.59633600;2023-03-22T11:53:34;94723.69;;;16.75;53.19
2000;BME280;1001;48.87406500;9.59633600;2023-03-22T11:56:04;94724.50;;;17.05;51.68
2000;BME280;1001;48.87406500;9.59633600;2023-03-22T11:58:54;94711.72;;;16.88;50.89
2000;BME280;1001;48.87406500;9.59633600;2023-03-22T12:01:31;94712.53;;;16.83;52.62
2000;BME280;1001;48.87406500;9.59633600;2023-03-22T12:04:00;94706.63;;;17.25;51.74